METAR Data

Data at: 0731 UTC 28 Sep 2022

METAR for:KHYA (Hyannis/Barnstable M, MA, US)
Text:KHYA 280656Z AUTO 00000KT 10SM CLR 09/08 A2995 RMK AO2 SLP143 T00940078
Temperature: 9.4°C ( 49°F)
Dewpoint: 7.8°C ( 46°F) [RH = 90%]
Pressure (altimeter):29.95 inches Hg (1014.3 mb) [Sea level pressure: 1014.3 mb]
Winds:calm
Visibility:10 or more sm (16+ km)
Ceiling:at least 12,000 feet AGL
Clouds:sky clear below 12,000 feet AGL
QC Flag:automated observation with no human augmentation